8AL5 weather

Plant Gorgas Heliport
Parrish, Alabama, United States

Public forecast

Using degrees Fahrenheit for public forecast. Weather courtesy of forecast.io.

Closest aviation weather report (METAR) to Plant Gorgas Heliport

Closest report is Walker County Airport-Bevill Field, 16.6 nm (30.8 km) NNW. Retrieved 2019/10/17 06:35 UTC (21 minutes ago):

KJFX 170635Z AUTO 10SM CLR 06/06 A3005 RMK AO2

Closest aviation forecast (TAF) to Plant Gorgas Heliport

Closest forecast is Birmingham-Shuttlesworth International Airport, 22.7 nm (42.0 km) ESE. Retrieved 2019/10/17 06:22 UTC (34 minutes ago):

TAF KBHM 170520Z 1706/1806 33003KT P6SM SCT250 FM171600 34007KT P6SM SKC FM180000 00000KT P6SM SKC